Time;durP1;ratioP1;P1;durP2;ratioP2;P2;SDS_P1;SDS_P2;PMS_P1;PMS_P2;Temp;Humidity;BMP_temperature;BMP_pressure;BME280_temperature;BME280_humidity;BME280_pressure;Samples;Min_cycle;Max_cycle;Signal;HPM_P1;HPM_P2
2023/05/20 00:00:10;;;;;;;0.20;0.20;;;;;;;;;;5074946;28;20036;-75
2023/05/20 00:02:35;;;;;;;0.22;0.22;;;;;;;;;;5075238;28;20028;-75
2023/05/20 00:05:01;;;;;;;0.13;0.13;;;;;;;;;;5074915;28;20056;-75
2023/05/20 00:07:26;;;;;;;0.40;0.40;;;;;;;;;;5074900;28;20387;-75
2023/05/20 00:09:51;;;;;;;0.20;0.20;;;;;;;;;;5056880;28;20036;-75
2023/05/20 00:12:17;;;;;;;0.20;0.20;;;;;;;;;;5074669;28;20480;-75
2023/05/20 00:14:42;;;;;;;0.20;0.20;;;;;;;;;;5074830;28;20055;-75
2023/05/20 00:17:08;;;;;;;0.20;0.20;;;;;;;;;;5074611;28;20119;-75
2023/05/20 00:19:33;;;;;;;0.75;0.75;;;;;;;;;;5074602;28;20079;-75
2023/05/20 00:21:59;;;;;;;0.20;0.20;;;;;;;;;;5074873;28;20032;-75
2023/05/20 00:24:24;;;;;;;0.10;0.10;;;;;;;;;;5074647;28;20036;-75
2023/05/20 00:26:50;;;;;;;0.20;0.20;;;;;;;;;;5074511;28;20029;-75
2023/05/20 00:29:15;;;;;;;0.20;0.20;;;;;;;;;;5074606;28;20027;-75
2023/05/20 00:31:40;;;;;;;0.20;0.20;;;;;;;;;;5074533;28;20036;-75
2023/05/20 00:34:06;;;;;;;0.20;0.20;;;;;;;;;;5074494;28;20036;-75
2023/05/20 00:36:32;;;;;;;0.20;0.20;;;;;;;;;;5056247;28;20036;-75
2023/05/20 00:38:57;;;;;;;0.20;0.20;;;;;;;;;;5056198;28;20036;-76
2023/05/20 00:41:23;;;;;;;2.80;2.60;;;;;;;;;;5056383;28;20060;-75
2023/05/20 00:43:51;;;;;;;0.73;0.60;;;;;;;;;;5073404;28;20028;-75
2023/05/20 00:46:17;;;;;;;0.30;0.30;;;;;;;;;;5074270;28;20024;-76
2023/05/20 00:48:43;;;;;;;0.20;0.20;;;;;;;;;;5055958;28;20043;-75
2023/05/20 00:51:10;;;;;;;0.20;0.20;;;;;;;;;;5073977;28;20044;-75
2023/05/20 00:53:35;;;;;;;0.40;0.40;;;;;;;;;;5073972;28;20040;-75
2023/05/20 00:56:01;;;;;;;17.30;0.85;;;;;;;;;;5056235;28;20032;-75
2023/05/20 00:58:27;;;;;;;0.20;0.20;;;;;;;;;;5055992;28;20079;-76
2023/05/20 01:00:52;;;;;;;5.30;2.38;;;;;;;;;;5074000;28;20037;-75
2023/05/20 01:03:18;;;;;;;0.17;0.17;;;;;;;;;;5074004;28;20047;-75
2023/05/20 01:05:43;;;;;;;1.30;1.20;;;;;;;;;;5073932;28;20039;-75
2023/05/20 01:08:09;;;;;;;6.18;1.60;;;;;;;;;;5073770;28;20029;-75
2023/05/20 01:10:36;;;;;;;0.20;0.20;;;;;;;;;;5055677;28;20123;-75
2023/05/20 01:13:04;;;;;;;0.20;0.20;;;;;;;;;;5073893;28;20117;-75
2023/05/20 01:15:30;;;;;;;0.20;0.20;;;;;;;;;;5055872;28;20024;-76
2023/05/20 01:18:00;;;;;;;0.17;0.17;;;;;;;;;;5055797;28;20132;-75
2023/05/20 01:20:26;;;;;;;0.20;0.20;;;;;;;;;;5055594;28;20032;-76
2023/05/20 01:22:54;;;;;;;9.27;1.08;;;;;;;;;;5073894;28;20062;-75
2023/05/20 01:25:19;;;;;;;0.20;0.20;;;;;;;;;;5073863;28;20378;-75
2023/05/20 01:27:46;;;;;;;0.20;0.20;;;;;;;;;;5073774;28;20123;-75
2023/05/20 01:30:11;;;;;;;0.20;0.20;;;;;;;;;;5073695;28;20044;-75
2023/05/20 01:32:47;;;;;;;0.20;0.20;;;;;;;;;;5073501;28;20044;-76
2023/05/20 01:35:13;;;;;;;0.20;0.20;;;;;;;;;;5055529;28;20042;-76
2023/05/20 01:37:39;;;;;;;0.30;0.30;;;;;;;;;;5073410;28;20123;-75
2023/05/20 01:40:08;;;;;;;2.92;2.83;;;;;;;;;;5073365;28;20509;-76
2023/05/20 01:42:34;;;;;;;0.30;0.30;;;;;;;;;;5055610;28;20036;-76
2023/05/20 01:45:00;;;;;;;2.83;1.48;;;;;;;;;;5055241;28;20123;-76
2023/05/20 01:47:26;;;;;;;28.58;1.65;;;;;;;;;;5054972;28;20119;-76
2023/05/20 01:49:53;;;;;;;0.10;0.10;;;;;;;;;;5073166;28;20033;-76
2023/05/20 01:52:21;;;;;;;0.20;0.20;;;;;;;;;;5038396;28;20044;-76
2023/05/20 01:54:49;;;;;;;0.30;0.30;;;;;;;;;;5072953;28;20028;-76
2023/05/20 01:57:22;;;;;;;0.90;0.68;;;;;;;;;;5073094;28;20387;-76
2023/05/20 01:59:49;;;;;;;3.03;1.45;;;;;;;;;;5055373;28;20036;-76
2023/05/20 02:02:14;;;;;;;1.65;0.32;;;;;;;;;;5055149;28;20039;-76
2023/05/20 02:04:42;;;;;;;1.27;1.27;;;;;;;;;;5072782;28;20125;-77
2023/05/20 02:07:08;;;;;;;0.20;0.20;;;;;;;;;;5072762;28;20037;-75
2023/05/20 02:09:33;;;;;;;0.38;0.30;;;;;;;;;;5055041;28;20043;-75
2023/05/20 02:11:59;;;;;;;0.20;0.20;;;;;;;;;;5072610;28;20483;-75
2023/05/20 02:14:24;;;;;;;0.10;0.10;;;;;;;;;;5072774;28;20036;-76
2023/05/20 02:16:49;;;;;;;0.10;0.10;;;;;;;;;;5072807;28;20450;-76
2023/05/20 02:19:22;;;;;;;0.13;0.13;;;;;;;;;;5054766;28;20031;-77
2023/05/20 02:21:47;;;;;;;0.20;0.20;;;;;;;;;;5072988;28;20349;-77
2023/05/20 02:24:13;;;;;;;0.20;0.20;;;;;;;;;;5072810;28;20040;-76
2023/05/20 02:26:38;;;;;;;0.20;0.20;;;;;;;;;;5054845;28;20123;-76
2023/05/20 02:29:04;;;;;;;0.20;0.20;;;;;;;;;;5054365;28;20116;-76
2023/05/20 02:31:29;;;;;;;0.20;0.20;;;;;;;;;;5072552;28;20119;-76
2023/05/20 02:33:54;;;;;;;0.20;0.20;;;;;;;;;;5072432;28;20040;-76
2023/05/20 02:36:20;;;;;;;0.50;0.50;;;;;;;;;;5070318;28;20052;-76
2023/05/20 02:38:45;;;;;;;0.13;0.13;;;;;;;;;;5071666;28;20040;-77
2023/05/20 02:41:11;;;;;;;0.20;0.20;;;;;;;;;;5054445;28;20032;-76
2023/05/20 02:43:36;;;;;;;0.20;0.20;;;;;;;;;;5072359;28;20456;-76
2023/05/20 02:46:02;;;;;;;0.20;0.20;;;;;;;;;;5054448;28;20032;-76
2023/05/20 02:48:27;;;;;;;0.20;0.20;;;;;;;;;;5054347;28;20487;-77
2023/05/20 02:50:53;;;;;;;0.20;0.20;;;;;;;;;;5054156;28;20112;-76
2023/05/20 02:53:18;;;;;;;1.88;1.75;;;;;;;;;;5054474;28;20037;-76
2023/05/20 02:55:46;;;;;;;4.57;2.28;;;;;;;;;;5072242;28;20055;-76
2023/05/20 02:58:12;;;;;;;0.60;0.60;;;;;;;;;;5054374;28;20051;-76
2023/05/20 03:00:39;;;;;;;0.20;0.20;;;;;;;;;;5054350;28;20539;-76
2023/05/20 03:03:06;;;;;;;0.20;0.20;;;;;;;;;;5067981;28;20037;-76
2023/05/20 03:05:32;;;;;;;22.90;19.58;;;;;;;;;;5068517;28;20039;-77
2023/05/20 03:07:58;;;;;;;0.20;0.20;;;;;;;;;;5070091;28;20123;-76
2023/05/20 03:10:23;;;;;;;0.20;0.20;;;;;;;;;;5071893;28;20492;-77
2023/05/20 03:12:48;;;;;;;0.15;0.15;;;;;;;;;;5072144;28;20028;-76
2023/05/20 03:15:14;;;;;;;0.20;0.20;;;;;;;;;;5072048;28;20559;-78
2023/05/20 03:17:39;;;;;;;0.20;0.20;;;;;;;;;;5054081;28;20043;-76
2023/05/20 03:20:06;;;;;;;0.20;0.20;;;;;;;;;;5071452;28;20430;-76
2023/05/20 03:22:31;;;;;;;0.20;0.20;;;;;;;;;;5053750;28;20134;-76
2023/05/20 03:24:59;;;;;;;0.20;0.20;;;;;;;;;;5054378;28;20032;-76
2023/05/20 03:27:26;;;;;;;0.20;0.20;;;;;;;;;;5053413;28;20040;-76
2023/05/20 03:29:54;;;;;;;0.30;0.30;;;;;;;;;;5071479;28;20071;-76
2023/05/20 03:32:20;;;;;;;0.20;0.20;;;;;;;;;;5052901;28;20045;-78
2023/05/20 03:34:45;;;;;;;2.17;1.35;;;;;;;;;;5071501;28;20036;-76
2023/05/20 03:37:11;;;;;;;0.20;0.20;;;;;;;;;;5071302;28;20051;-77
2023/05/20 03:39:36;;;;;;;0.20;0.20;;;;;;;;;;5071216;28;20064;-76
2023/05/20 03:42:02;;;;;;;0.20;0.20;;;;;;;;;;5052807;28;20578;-76
2023/05/20 03:44:27;;;;;;;0.20;0.20;;;;;;;;;;5053162;28;20434;-76
2023/05/20 03:46:53;;;;;;;0.20;0.20;;;;;;;;;;5036539;28;20492;-76
2023/05/20 03:49:18;;;;;;;0.20;0.20;;;;;;;;;;5070985;28;20025;-76
2023/05/20 03:51:45;;;;;;;1.17;1.10;;;;;;;;;;5070999;28;20388;-77
2023/05/20 03:54:11;;;;;;;0.20;0.20;;;;;;;;;;5052741;28;20033;-76
2023/05/20 03:56:37;;;;;;;0.20;0.20;;;;;;;;;;5052961;28;20043;-76
2023/05/20 03:59:04;;;;;;;0.20;0.20;;;;;;;;;;5070609;28;20040;-76
2023/05/20 04:01:30;;;;;;;0.20;0.20;;;;;;;;;;5053269;28;20134;-77
2023/05/20 04:03:56;;;;;;;0.20;0.20;;;;;;;;;;5051979;28;20486;-76
2023/05/20 04:06:21;;;;;;;8.30;2.65;;;;;;;;;;5070443;28;20541;-76
2023/05/20 04:08:48;;;;;;;0.20;0.20;;;;;;;;;;5052524;28;20113;-78
2023/05/20 04:11:14;;;;;;;0.20;0.20;;;;;;;;;;5070761;28;20027;-76
2023/05/20 04:13:39;;;;;;;0.20;0.20;;;;;;;;;;5070348;28;20041;-76
2023/05/20 04:16:05;;;;;;;0.10;0.10;;;;;;;;;;5052374;28;20538;-77
2023/05/20 04:18:30;;;;;;;0.35;0.35;;;;;;;;;;5052183;28;20060;-77
2023/05/20 04:20:56;;;;;;;0.10;0.10;;;;;;;;;;5036271;28;20035;-79
2023/05/20 04:23:22;;;;;;;0.30;0.30;;;;;;;;;;5052520;28;20036;-76
2023/05/20 04:25:48;;;;;;;0.20;0.20;;;;;;;;;;5052445;28;20449;-77
2023/05/20 04:28:15;;;;;;;0.20;0.20;;;;;;;;;;5052463;28;20071;-77
2023/05/20 04:30:41;;;;;;;2.22;0.90;;;;;;;;;;5052425;28;20399;-76
2023/05/20 04:33:07;;;;;;;6.18;1.80;;;;;;;;;;5070486;28;20118;-76
2023/05/20 04:35:33;;;;;;;0.43;0.43;;;;;;;;;;5052668;28;20135;-76
2023/05/20 04:38:02;;;;;;;0.55;0.55;;;;;;;;;;5052106;28;20369;-76
2023/05/20 04:40:28;;;;;;;0.38;0.38;;;;;;;;;;5052318;28;20106;-76
2023/05/20 04:42:54;;;;;;;2.28;2.08;;;;;;;;;;5070354;28;20638;-76
2023/05/20 04:45:22;;;;;;;3.42;2.33;;;;;;;;;;5052336;28;20025;-76
2023/05/20 04:47:48;;;;;;;0.20;0.20;;;;;;;;;;5052181;28;20047;-76
2023/05/20 04:50:13;;;;;;;0.63;0.60;;;;;;;;;;5052418;28;20041;-76
2023/05/20 04:52:41;;;;;;;2.55;1.10;;;;;;;;;;5069943;28;20020;-76
2023/05/20 04:55:09;;;;;;;0.82;0.82;;;;;;;;;;5050694;28;20036;-78
2023/05/20 04:57:37;;;;;;;0.32;0.32;;;;;;;;;;5069513;28;20032;-79
2023/05/20 05:00:06;;;;;;;0.20;0.20;;;;;;;;;;5051515;28;20181;-75
2023/05/20 05:02:31;;;;;;;0.30;0.30;;;;;;;;;;5070061;28;20045;-75
2023/05/20 05:04:57;;;;;;;0.20;0.20;;;;;;;;;;5069730;28;20024;-76
2023/05/20 05:07:23;;;;;;;0.60;0.60;;;;;;;;;;5051118;28;20564;-76
2023/05/20 05:09:48;;;;;;;0.20;0.20;;;;;;;;;;5050612;28;20024;-76
2023/05/20 05:12:14;;;;;;;1.00;1.00;;;;;;;;;;5051307;28;20117;-75
2023/05/20 05:14:39;;;;;;;0.20;0.20;;;;;;;;;;5051756;28;20162;-75
2023/05/20 05:17:04;;;;;;;0.17;0.17;;;;;;;;;;5051600;28;20029;-75
2023/05/20 05:19:30;;;;;;;0.50;0.40;;;;;;;;;;5069797;28;20059;-75
2023/05/20 05:21:55;;;;;;;1.65;1.25;;;;;;;;;;5052017;28;20032;-75
2023/05/20 05:24:20;;;;;;;0.82;0.82;;;;;;;;;;5051345;28;20041;-75
2023/05/20 05:26:46;;;;;;;0.20;0.20;;;;;;;;;;5051602;28;20446;-75
2023/05/20 05:29:12;;;;;;;3.15;1.08;;;;;;;;;;5050411;28;20032;-76
2023/05/20 05:31:38;;;;;;;0.45;0.45;;;;;;;;;;5050530;28;20032;-76
2023/05/20 05:34:03;;;;;;;1.33;1.23;;;;;;;;;;5050064;28;20028;-76
2023/05/20 05:36:31;;;;;;;1.42;1.30;;;;;;;;;;5050868;28;20040;-75
2023/05/20 05:38:56;;;;;;;0.95;0.88;;;;;;;;;;5051211;28;20020;-75
2023/05/20 05:41:22;;;;;;;0.15;0.15;;;;;;;;;;5051312;28;20082;-77
2023/05/20 05:43:48;;;;;;;0.20;0.20;;;;;;;;;;5051349;28;20036;-76
2023/05/20 05:46:13;;;;;;;0.30;0.30;;;;;;;;;;5041582;28;20049;-77
2023/05/20 05:48:39;;;;;;;0.20;0.20;;;;;;;;;;5031370;28;20035;-77
2023/05/20 05:51:04;;;;;;;0.30;0.30;;;;;;;;;;5031313;28;20037;-77
2023/05/20 05:53:30;;;;;;;0.20;0.20;;;;;;;;;;5031333;28;20534;-77
2023/05/20 05:55:55;;;;;;;1.45;1.30;;;;;;;;;;5031759;28;20462;-75
2023/05/20 05:58:21;;;;;;;0.70;0.50;;;;;;;;;;5030934;28;20040;-75
2023/05/20 06:00:49;;;;;;;1.13;0.98;;;;;;;;;;5059119;28;20055;-76
2023/05/20 06:03:15;;;;;;;0.40;0.40;;;;;;;;;;5050655;28;20083;-75
2023/05/20 06:05:43;;;;;;;0.73;0.52;;;;;;;;;;5050304;28;20036;-75
2023/05/20 06:08:09;;;;;;;0.20;0.20;;;;;;;;;;5049818;28;20452;-77
2023/05/20 06:10:35;;;;;;;0.88;0.88;;;;;;;;;;5050631;28;20531;-75
2023/05/20 06:13:00;;;;;;;0.22;0.22;;;;;;;;;;5049295;28;20036;-76
2023/05/20 06:15:26;;;;;;;0.32;0.30;;;;;;;;;;5057905;28;20032;-75
2023/05/20 06:17:52;;;;;;;9.40;7.20;;;;;;;;;;5040744;28;20028;-76
2023/05/20 06:20:17;;;;;;;0.20;0.20;;;;;;;;;;5050657;28;20032;-78
2023/05/20 06:22:43;;;;;;;0.20;0.20;;;;;;;;;;5050840;28;20252;-76
2023/05/20 06:25:09;;;;;;;0.20;0.20;;;;;;;;;;5047339;28;20383;-77
2023/05/20 06:27:43;;;;;;;0.10;0.10;;;;;;;;;;5030251;28;20446;-77
2023/05/20 06:30:20;;;;;;;0.30;0.30;;;;;;;;;;5029597;28;20099;-77
2023/05/20 06:32:52;;;;;;;0.20;0.20;;;;;;;;;;5034703;28;20044;-76
2023/05/20 06:35:26;;;;;;;0.20;0.20;;;;;;;;;;5045371;28;20025;-78
2023/05/20 06:37:54;;;;;;;0.30;0.30;;;;;;;;;;5036126;28;20083;-78
2023/05/20 06:40:20;;;;;;;0.13;0.13;;;;;;;;;;5064580;28;20032;-75
2023/05/20 06:42:45;;;;;;;4.43;2.72;;;;;;;;;;5049418;28;20490;-75
2023/05/20 06:45:12;;;;;;;0.30;0.30;;;;;;;;;;5050753;28;20457;-78
2023/05/20 06:47:47;;;;;;;1.55;1.05;;;;;;;;;;5068569;28;20028;-75
2023/05/20 06:50:13;;;;;;;0.20;0.20;;;;;;;;;;5049464;28;20032;-76
2023/05/20 06:52:38;;;;;;;1.33;1.17;;;;;;;;;;5050010;28;20045;-76
2023/05/20 06:55:05;;;;;;;0.85;0.85;;;;;;;;;;5050769;28;20016;-76
2023/05/20 06:57:30;;;;;;;0.80;0.80;;;;;;;;;;5067866;28;20064;-75
2023/05/20 06:59:55;;;;;;;0.30;0.30;;;;;;;;;;5050353;28;20071;-76
2023/05/20 07:02:22;;;;;;;0.20;0.20;;;;;;;;;;5050177;28;20369;-76
2023/05/20 07:04:47;;;;;;;0.20;0.20;;;;;;;;;;5050204;28;20028;-75
2023/05/20 07:07:13;;;;;;;0.43;0.43;;;;;;;;;;5050184;28;20032;-77
2023/05/20 07:09:39;;;;;;;0.30;0.30;;;;;;;;;;5068045;28;20028;-75
2023/05/20 07:12:06;;;;;;;0.20;0.20;;;;;;;;;;5064892;28;20036;-76
2023/05/20 07:14:31;;;;;;;1.00;0.65;;;;;;;;;;5067292;28;20078;-76
2023/05/20 07:16:57;;;;;;;1.42;0.93;;;;;;;;;;5066854;28;20044;-74
2023/05/20 07:19:23;;;;;;;5.18;2.17;;;;;;;;;;5067974;28;20025;-76
2023/05/20 07:21:48;;;;;;;0.20;0.20;;;;;;;;;;5063508;28;20391;-76
2023/05/20 07:24:34;;;;;;;0.50;0.43;;;;;;;;;;5068110;28;20106;-75
2023/05/20 07:27:01;;;;;;;0.90;0.85;;;;;;;;;;5033665;28;20037;-75
2023/05/20 07:29:27;;;;;;;0.20;0.20;;;;;;;;;;5053408;28;20083;-76
2023/05/20 07:31:52;;;;;;;1.80;1.42;;;;;;;;;;5047956;28;20110;-75
2023/05/20 07:34:18;;;;;;;1.70;1.35;;;;;;;;;;5029652;28;20045;-76
2023/05/20 07:36:44;;;;;;;0.20;0.20;;;;;;;;;;5048148;28;20037;-76
2023/05/20 07:39:10;;;;;;;2.50;1.52;;;;;;;;;;5047499;28;20037;-75
2023/05/20 07:41:39;;;;;;;0.80;0.55;;;;;;;;;;5030018;28;20166;-79
2023/05/20 07:44:07;;;;;;;0.20;0.20;;;;;;;;;;5029845;28;20032;-75
2023/05/20 07:46:35;;;;;;;2.65;2.40;;;;;;;;;;5029064;28;20041;-75
2023/05/20 07:49:00;;;;;;;0.60;0.60;;;;;;;;;;5028656;28;20029;-76
2023/05/20 07:51:26;;;;;;;1.40;1.13;;;;;;;;;;5028634;28;20029;-76
2023/05/20 07:53:52;;;;;;;0.10;0.10;;;;;;;;;;5030903;28;20512;-75
2023/05/20 07:56:18;;;;;;;0.10;0.10;;;;;;;;;;5031643;28;20408;-75
2023/05/20 07:58:51;;;;;;;0.52;0.52;;;;;;;;;;5031910;28;20480;-75
2023/05/20 08:01:16;;;;;;;0.17;0.17;;;;;;;;;;5031232;28;20047;-75
2023/05/20 08:03:42;;;;;;;0.30;0.30;;;;;;;;;;5030705;28;20025;-78
2023/05/20 08:06:11;;;;;;;0.20;0.20;;;;;;;;;;5031081;28;20076;-78
2023/05/20 08:08:40;;;;;;;0.20;0.20;;;;;;;;;;5030778;28;20130;-76
2023/05/20 08:11:10;;;;;;;0.20;0.20;;;;;;;;;;5030863;28;20484;-76
2023/05/20 08:13:37;;;;;;;1.58;0.73;;;;;;;;;;5031009;28;20438;-77
2023/05/20 08:16:04;;;;;;;0.20;0.20;;;;;;;;;;5032544;28;20044;-76
2023/05/20 08:18:31;;;;;;;0.20;0.20;;;;;;;;;;5033253;28;20037;-76
2023/05/20 08:20:57;;;;;;;0.20;0.20;;;;;;;;;;5032763;28;20039;-76
2023/05/20 08:23:24;;;;;;;0.28;0.28;;;;;;;;;;5032612;28;20044;-76
2023/05/20 08:25:49;;;;;;;2.15;1.95;;;;;;;;;;5033077;28;20040;-77
2023/05/20 08:28:17;;;;;;;0.20;0.20;;;;;;;;;;5032817;28;21039;-77
2023/05/20 08:30:43;;;;;;;0.45;0.45;;;;;;;;;;5032864;28;20099;-74
2023/05/20 08:33:09;;;;;;;0.20;0.20;;;;;;;;;;5050563;28;20045;-78
2023/05/20 08:35:35;;;;;;;0.15;0.15;;;;;;;;;;5032320;28;20033;-77
2023/05/20 08:38:00;;;;;;;0.20;0.20;;;;;;;;;;5032542;28;20092;-78
2023/05/20 08:40:26;;;;;;;0.20;0.20;;;;;;;;;;5032629;28;20086;-78
2023/05/20 08:42:51;;;;;;;0.22;0.22;;;;;;;;;;5050257;28;20024;-76
2023/05/20 08:45:19;;;;;;;0.20;0.20;;;;;;;;;;5032191;28;20064;-76
2023/05/20 08:47:45;;;;;;;1.55;1.17;;;;;;;;;;5032019;28;20037;-76
2023/05/20 08:50:11;;;;;;;0.20;0.20;;;;;;;;;;5050173;28;20037;-75
2023/05/20 08:52:39;;;;;;;0.20;0.20;;;;;;;;;;5050298;28;20120;-76
2023/05/20 08:55:06;;;;;;;0.20;0.20;;;;;;;;;;5032162;28;20064;-76
2023/05/20 08:57:32;;;;;;;0.28;0.28;;;;;;;;;;5032418;28;20506;-76
2023/05/20 08:59:58;;;;;;;0.20;0.20;;;;;;;;;;5050474;28;20068;-76
2023/05/20 09:02:24;;;;;;;0.40;0.38;;;;;;;;;;5049572;28;20392;-76
2023/05/20 09:04:50;;;;;;;1.10;1.10;;;;;;;;;;5048845;28;20025;-76
2023/05/20 09:07:25;;;;;;;0.30;0.30;;;;;;;;;;5032288;28;20583;-77
2023/05/20 09:09:51;;;;;;;0.20;0.20;;;;;;;;;;5049896;28;20041;-76
2023/05/20 09:12:16;;;;;;;0.20;0.20;;;;;;;;;;5049493;28;20029;-79
2023/05/20 09:14:42;;;;;;;0.20;0.20;;;;;;;;;;5049299;28;20048;-78
2023/05/20 09:17:07;;;;;;;0.20;0.20;;;;;;;;;;5049671;28;20094;-76
2023/05/20 09:19:32;;;;;;;0.30;0.30;;;;;;;;;;5049370;28;20051;-76
2023/05/20 09:21:58;;;;;;;0.50;0.45;;;;;;;;;;5050076;28;20086;-76
2023/05/20 09:24:24;;;;;;;0.68;0.68;;;;;;;;;;5031561;28;20039;-77
2023/05/20 09:26:49;;;;;;;12.85;2.58;;;;;;;;;;5049042;28;20104;-77
2023/05/20 09:29:15;;;;;;;0.10;0.10;;;;;;;;;;5048928;28;20083;-77
2023/05/20 09:31:40;;;;;;;0.20;0.20;;;;;;;;;;5047967;28;20045;-78
2023/05/20 09:34:06;;;;;;;0.20;0.20;;;;;;;;;;5048086;28;20060;-77
2023/05/20 09:36:33;;;;;;;1.65;1.10;;;;;;;;;;5048690;28;20033;-77
2023/05/20 09:39:02;;;;;;;0.75;0.75;;;;;;;;;;5048891;28;20753;-77
2023/05/20 09:41:31;;;;;;;0.20;0.20;;;;;;;;;;5031252;28;20068;-77
2023/05/20 09:43:56;;;;;;;0.20;0.20;;;;;;;;;;5049661;28;20071;-77
2023/05/20 09:46:22;;;;;;;0.20;0.20;;;;;;;;;;5049179;28;20139;-79
2023/05/20 09:48:48;;;;;;;0.77;0.45;;;;;;;;;;5031468;28;20051;-78
2023/05/20 09:51:13;;;;;;;0.20;0.20;;;;;;;;;;5049271;28;20369;-76
2023/05/20 09:53:39;;;;;;;0.20;0.20;;;;;;;;;;5049030;28;20045;-77
2023/05/20 09:56:05;;;;;;;7.85;6.03;;;;;;;;;;5049108;28;20482;-76
2023/05/20 09:58:32;;;;;;;0.20;0.20;;;;;;;;;;5049534;28;20343;-76
2023/05/20 10:00:58;;;;;;;0.20;0.20;;;;;;;;;;5049302;28;20025;-76
2023/05/20 10:03:23;;;;;;;0.20;0.20;;;;;;;;;;5048900;28;20048;-76
2023/05/20 10:06:12;;;;;;;0.20;0.20;;;;;;;;;;5049249;28;20372;-76
2023/05/20 10:09:07;;;;;;;0.20;0.20;;;;;;;;;;5038232;28;20056;-76
2023/05/20 10:11:32;;;;;;;2.95;2.75;;;;;;;;;;5031253;28;20488;-76
2023/05/20 10:13:57;;;;;;;1.40;1.33;;;;;;;;;;5059804;28;20028;-76
2023/05/20 10:16:41;;;;;;;3.97;3.75;;;;;;;;;;5074339;28;20036;-76
2023/05/20 10:19:13;;;;;;;0.20;0.20;;;;;;;;;;5059728;28;20094;-76
2023/05/20 10:21:38;;;;;;;0.20;0.20;;;;;;;;;;5060921;28;20476;-76
2023/05/20 10:24:10;;;;;;;0.40;0.40;;;;;;;;;;5068311;28;20055;-76
2023/05/20 10:26:39;;;;;;;2.05;1.95;;;;;;;;;;5050422;28;20368;-76
2023/05/20 10:29:14;;;;;;;0.20;0.20;;;;;;;;;;5034038;28;20040;-76
2023/05/20 10:31:44;;;;;;;0.20;0.20;;;;;;;;;;5068294;28;20033;-77
2023/05/20 10:34:13;;;;;;;0.20;0.20;;;;;;;;;;5069113;28;20055;-76
2023/05/20 10:36:43;;;;;;;0.20;0.20;;;;;;;;;;5068562;28;20032;-77
2023/05/20 10:39:14;;;;;;;0.20;0.20;;;;;;;;;;5068622;28;20479;-77
2023/05/20 10:41:39;;;;;;;0.20;0.20;;;;;;;;;;5050873;28;20043;-77
2023/05/20 10:44:05;;;;;;;5.32;1.70;;;;;;;;;;5068192;28;20115;-77
2023/05/20 10:46:31;;;;;;;0.20;0.20;;;;;;;;;;5068601;28;20532;-77
2023/05/20 10:48:57;;;;;;;0.20;0.20;;;;;;;;;;5068405;28;20089;-77
2023/05/20 10:51:23;;;;;;;0.20;0.20;;;;;;;;;;5068514;28;20143;-78
2023/05/20 10:53:51;;;;;;;7.10;4.47;;;;;;;;;;5068775;28;20033;-78
2023/05/20 10:56:17;;;;;;;0.30;0.30;;;;;;;;;;5050332;28;20387;-77
2023/05/20 10:58:43;;;;;;;0.20;0.20;;;;;;;;;;5050080;28;20051;-78
2023/05/20 11:01:09;;;;;;;0.30;0.30;;;;;;;;;;5068342;28;20032;-78
2023/05/20 11:03:34;;;;;;;0.28;0.20;;;;;;;;;;5068246;28;20032;-78
2023/05/20 11:06:00;;;;;;;7.15;6.50;;;;;;;;;;5069202;28;20475;-79
2023/05/20 11:08:32;;;;;;;4.10;1.23;;;;;;;;;;5067703;28;20037;-77
2023/05/20 11:10:57;;;;;;;8.07;0.88;;;;;;;;;;5068199;28;20037;-78
2023/05/20 11:13:24;;;;;;;0.40;0.28;;;;;;;;;;5050603;28;20488;-77
2023/05/20 11:15:49;;;;;;;2.75;0.65;;;;;;;;;;5068172;28;20036;-75
2023/05/20 11:18:15;;;;;;;1.52;1.00;;;;;;;;;;5049729;28;20574;-77
2023/05/20 11:20:40;;;;;;;3.75;1.55;;;;;;;;;;5049996;28;20052;-76
2023/05/20 11:23:10;;;;;;;1.98;0.52;;;;;;;;;;5067825;28;20029;-75
2023/05/20 11:25:36;;;;;;;6.97;1.95;;;;;;;;;;5067919;28;20036;-77
2023/05/20 11:28:01;;;;;;;3.35;3.08;;;;;;;;;;5068996;28;20079;-76
2023/05/20 11:30:29;;;;;;;1.02;0.90;;;;;;;;;;5071820;28;20039;-77
2023/05/20 11:33:01;;;;;;;5.88;0.90;;;;;;;;;;5053712;28;20059;-77
2023/05/20 11:35:29;;;;;;;0.20;0.20;;;;;;;;;;5053753;28;20128;-76
2023/05/20 11:38:01;;;;;;;0.20;0.20;;;;;;;;;;5070971;28;20380;-77
2023/05/20 11:40:27;;;;;;;0.25;0.20;;;;;;;;;;5070627;28;20036;-78
2023/05/20 11:42:53;;;;;;;2.83;1.00;;;;;;;;;;5050832;28;20120;-76
2023/05/20 11:45:18;;;;;;;1.88;1.77;;;;;;;;;;5052244;28;20044;-75
2023/05/20 11:47:43;;;;;;;1.80;0.30;;;;;;;;;;5071048;28;20387;-77
2023/05/20 11:50:09;;;;;;;0.20;0.20;;;;;;;;;;5070871;28;20078;-77
2023/05/20 11:52:34;;;;;;;0.20;0.20;;;;;;;;;;5053018;28;20108;-77
2023/05/20 11:55:00;;;;;;;0.30;0.30;;;;;;;;;;5071082;28;20051;-76
2023/05/20 11:57:25;;;;;;;0.20;0.20;;;;;;;;;;5071088;28;20103;-76
2023/05/20 11:59:50;;;;;;;1.55;0.82;;;;;;;;;;5071193;28;20036;-77
2023/05/20 12:02:16;;;;;;;0.20;0.20;;;;;;;;;;5070947;28;20455;-76
2023/05/20 12:04:41;;;;;;;0.20;0.20;;;;;;;;;;5070964;28;20032;-77
2023/05/20 12:07:08;;;;;;;0.20;0.20;;;;;;;;;;5070853;28;20075;-77
2023/05/20 12:09:34;;;;;;;1.42;1.42;;;;;;;;;;5071110;28;20097;-76
2023/05/20 12:12:00;;;;;;;7.70;7.22;;;;;;;;;;5055566;28;20461;-76
2023/05/20 12:14:25;;;;;;;0.75;0.75;;;;;;;;;;5050900;28;20060;-76
2023/05/20 12:16:52;;;;;;;0.20;0.20;;;;;;;;;;5051001;28;20076;-77
2023/05/20 12:19:18;;;;;;;3.28;3.03;;;;;;;;;;5050793;28;20430;-78
2023/05/20 12:21:46;;;;;;;0.20;0.20;;;;;;;;;;5072053;28;20040;-77
2023/05/20 12:24:11;;;;;;;0.20;0.20;;;;;;;;;;5070461;28;20048;-76
2023/05/20 12:26:37;;;;;;;5.30;4.88;;;;;;;;;;5069938;28;20125;-76
2023/05/20 12:29:02;;;;;;;1.85;1.75;;;;;;;;;;5063240;28;20035;-75
2023/05/20 12:31:27;;;;;;;0.20;0.20;;;;;;;;;;5059800;28;20091;-75
2023/05/20 12:33:53;;;;;;;0.20;0.20;;;;;;;;;;5046612;28;20131;-76
2023/05/20 12:36:18;;;;;;;0.20;0.20;;;;;;;;;;5070427;28;20033;-76
2023/05/20 12:38:44;;;;;;;0.63;0.63;;;;;;;;;;5070599;28;20403;-76
2023/05/20 12:41:09;;;;;;;3.20;2.63;;;;;;;;;;5068806;28;20482;-75
2023/05/20 12:43:35;;;;;;;3.63;2.75;;;;;;;;;;5050384;28;20025;-77
2023/05/20 12:46:01;;;;;;;10.95;4.25;;;;;;;;;;5031979;28;20209;-76
2023/05/20 12:48:26;;;;;;;0.20;0.20;;;;;;;;;;5050065;28;20027;-77
2023/05/20 12:50:52;;;;;;;0.68;0.68;;;;;;;;;;5049924;28;20400;-77
2023/05/20 12:53:17;;;;;;;2.15;1.88;;;;;;;;;;5050380;28;20029;-79
2023/05/20 12:55:43;;;;;;;0.95;0.95;;;;;;;;;;5050482;28;20419;-76
2023/05/20 12:58:08;;;;;;;0.20;0.20;;;;;;;;;;5050012;28;20072;-77
2023/05/20 13:00:34;;;;;;;0.20;0.20;;;;;;;;;;5034971;28;20056;-78
2023/05/20 13:02:59;;;;;;;0.20;0.20;;;;;;;;;;5032329;28;20029;-78
2023/05/20 13:05:25;;;;;;;0.32;0.32;;;;;;;;;;5050530;28;20041;-79
2023/05/20 13:07:50;;;;;;;2.17;2.08;;;;;;;;;;5050474;28;20541;-76
2023/05/20 13:10:16;;;;;;;0.20;0.20;;;;;;;;;;5050099;28;20113;-75
2023/05/20 13:12:45;;;;;;;0.45;0.45;;;;;;;;;;5050066;28;20029;-76
2023/05/20 13:15:13;;;;;;;0.22;0.22;;;;;;;;;;5049565;28;20041;-79
2023/05/20 13:17:39;;;;;;;0.20;0.20;;;;;;;;;;5048454;28;20090;-76
2023/05/20 13:20:06;;;;;;;1.05;1.00;;;;;;;;;;5051560;28;20037;-76
2023/05/20 13:22:31;;;;;;;0.57;0.57;;;;;;;;;;5067447;28;20036;-76
2023/05/20 13:24:57;;;;;;;0.20;0.20;;;;;;;;;;5069051;28;20038;-75
2023/05/20 13:27:22;;;;;;;0.50;0.50;;;;;;;;;;5068607;28;20593;-75
2023/05/20 13:29:47;;;;;;;0.30;0.30;;;;;;;;;;5069161;28;20032;-75
2023/05/20 13:32:13;;;;;;;0.20;0.20;;;;;;;;;;5068667;28;20124;-75
2023/05/20 13:34:38;;;;;;;0.20;0.20;;;;;;;;;;5069573;28;20048;-78
2023/05/20 13:37:04;;;;;;;0.60;0.57;;;;;;;;;;5069797;28;20028;-75
2023/05/20 13:39:29;;;;;;;0.30;0.30;;;;;;;;;;5069588;28;20035;-77
2023/05/20 13:41:55;;;;;;;1.30;1.30;;;;;;;;;;5069419;28;20024;-78
2023/05/20 13:44:20;;;;;;;0.20;0.20;;;;;;;;;;5051759;28;20981;-77
2023/05/20 13:46:46;;;;;;;0.20;0.20;;;;;;;;;;5069104;28;20041;-80
2023/05/20 13:49:11;;;;;;;0.20;0.20;;;;;;;;;;5060942;28;20107;-77
2023/05/20 13:51:37;;;;;;;0.20;0.20;;;;;;;;;;5068728;28;20475;-77
2023/05/20 13:54:02;;;;;;;0.28;0.28;;;;;;;;;;5069211;28;20033;-77
2023/05/20 13:56:28;;;;;;;1.05;1.05;;;;;;;;;;5068877;28;20032;-76
2023/05/20 13:58:53;;;;;;;0.20;0.20;;;;;;;;;;5069346;28;20035;-77
2023/05/20 14:01:18;;;;;;;0.20;0.20;;;;;;;;;;5068952;28;20036;-76
2023/05/20 14:03:44;;;;;;;0.15;0.15;;;;;;;;;;5069030;28;20043;-79
2023/05/20 14:06:10;;;;;;;0.20;0.20;;;;;;;;;;5069009;28;20032;-76
2023/05/20 14:08:35;;;;;;;0.20;0.20;;;;;;;;;;5051355;28;20036;-79
2023/05/20 14:11:00;;;;;;;0.20;0.20;;;;;;;;;;5069939;28;20028;-77
2023/05/20 14:13:26;;;;;;;0.20;0.20;;;;;;;;;;5069052;28;20085;-76
2023/05/20 14:15:53;;;;;;;0.20;0.20;;;;;;;;;;5068689;28;20089;-76
2023/05/20 14:18:18;;;;;;;1.00;1.00;;;;;;;;;;5051026;28;20474;-76
2023/05/20 14:20:44;;;;;;;4.68;3.95;;;;;;;;;;5068729;28;20045;-76
2023/05/20 14:23:10;;;;;;;0.20;0.20;;;;;;;;;;5068687;28;20104;-79
2023/05/20 14:25:36;;;;;;;24.80;16.88;;;;;;;;;;5051024;28;20170;-79
2023/05/20 14:28:01;;;;;;;0.47;0.47;;;;;;;;;;5068872;28;20154;-76
2023/05/20 14:30:27;;;;;;;0.20;0.20;;;;;;;;;;5068762;28;20460;-79
2023/05/20 14:32:52;;;;;;;0.20;0.20;;;;;;;;;;5068834;28;20028;-77
2023/05/20 14:35:17;;;;;;;0.20;0.20;;;;;;;;;;5065282;28;20377;-77
2023/05/20 14:37:43;;;;;;;0.20;0.20;;;;;;;;;;5037409;28;20154;-76